Time;durP1;ratioP1;P1;durP2;ratioP2;P2;SDS_P1;SDS_P2;PMS_P1;PMS_P2;Temp;Humidity;BMP_temperature;BMP_pressure;BME280_temperature;BME280_humidity;BME280_pressure;Samples;Min_cycle;Max_cycle;Signal;HPM_P1;HPM_P2
2023/03/19 00:04:46;;;;;;;5.97;3.50;;;12.50;91.60;;;;;;10322461;28;20223;-71
2023/03/19 00:09:47;;;;;;;5.80;3.73;;;12.40;91.70;;;;;;10322337;28;20312;-72
2023/03/19 00:14:48;;;;;;;6.53;3.83;;;12.30;92.10;;;;;;10320184;28;20225;-70
2023/03/19 00:19:48;;;;;;;6.40;3.70;;;12.20;92.40;;;;;;10322459;28;20230;-71
2023/03/19 00:24:49;;;;;;;5.17;3.30;;;12.10;92.50;;;;;;10318398;28;20229;-70
2023/03/19 00:29:50;;;;;;;11.33;3.97;;;12.00;92.60;;;;;;10308400;28;20261;-71
2023/03/19 00:34:50;;;;;;;5.70;3.87;;;11.90;93.40;;;;;;10326698;28;20237;-71
2023/03/19 00:39:51;;;;;;;7.33;3.87;;;11.90;93.50;;;;;;10308475;28;20237;-71
2023/03/19 00:44:51;;;;;;;9.13;4.10;;;11.80;93.40;;;;;;10310944;28;20720;-69
2023/03/19 00:49:52;;;;;;;7.47;3.70;;;11.80;93.40;;;;;;10320161;28;20233;-71
2023/03/19 00:54:52;;;;;;;11.43;3.70;;;12.00;93.40;;;;;;10310240;28;20412;-69
2023/03/19 00:59:53;;;;;;;6.27;3.60;;;12.10;93.20;;;;;;10312445;28;20280;-71
2023/03/19 01:04:54;;;;;;;6.37;3.23;;;12.10;93.00;;;;;;10308564;28;20226;-71
2023/03/19 01:09:54;;;;;;;7.50;3.73;;;12.20;92.80;;;;;;10316666;28;20701;-70
2023/03/19 01:14:55;;;;;;;7.60;3.60;;;12.20;92.70;;;;;;10307047;28;20663;-70
2023/03/19 01:19:55;;;;;;;7.27;3.80;;;12.10;92.50;;;;;;10313199;28;20224;-70
2023/03/19 01:24:56;;;;;;;4.40;3.43;;;12.20;92.50;;;;;;10309036;28;20249;-71
2023/03/19 01:29:57;;;;;;;6.97;2.70;;;12.20;92.60;;;;;;10312961;28;20220;-71
2023/03/19 01:34:57;;;;;;;8.57;3.60;;;12.20;92.90;;;;;;10318176;28;20292;-71
2023/03/19 01:39:58;;;;;;;4.27;3.10;;;12.10;93.30;;;;;;10313276;28;20222;-71
2023/03/19 01:45:01;;;;;;;6.83;3.40;;;12.00;93.60;;;;;;10314587;28;20226;-70
2023/03/19 01:50:02;;;;;;;4.73;3.17;;;11.90;94.20;;;;;;10322046;28;20276;-71
2023/03/19 01:55:06;;;;;;;6.90;3.60;;;11.80;95.00;;;;;;10317653;28;20229;-71
2023/03/19 02:00:09;;;;;;;4.30;3.00;;;11.70;95.70;;;;;;10323353;28;20233;-71
2023/03/19 02:05:13;;;;;;;5.47;3.40;;;11.70;95.80;;;;;;10310957;28;20204;-67
2023/03/19 02:10:16;;;;;;;4.93;3.53;;;11.60;96.60;;;;;;10308027;28;20201;-68
2023/03/19 02:15:17;;;;;;;6.13;3.40;;;11.60;97.50;;;;;;10314353;28;20236;-67
2023/03/19 02:20:26;;;;;;;5.70;3.50;;;11.60;97.70;;;;;;10321189;28;20228;-67
2023/03/19 02:25:53;;;;;;;5.10;3.43;;;11.60;98.00;;;;;;10318028;28;20218;-67
2023/03/19 02:30:53;;;;;;;5.97;3.53;;;11.60;98.70;;;;;;10308409;28;20264;-67
2023/03/19 02:35:56;;;;;;;5.87;3.60;;;11.70;99.40;;;;;;10321948;28;20219;-67
2023/03/19 02:41:06;;;;;;;7.07;4.10;;;11.70;99.10;;;;;;10310141;28;20230;-67
2023/03/19 02:46:11;;;;;;;6.37;3.50;;;11.70;99.50;;;;;;10328786;28;20221;-68
2023/03/19 02:51:12;;;;;;;5.30;3.93;;;11.70;99.60;;;;;;10322543;28;20233;-69
2023/03/19 02:56:13;;;;;;;6.10;3.50;;;11.70;99.90;;;;;;10318144;28;20222;-68
2023/03/19 03:01:14;;;;;;;4.80;3.47;;;11.60;99.90;;;;;;10314301;28;20324;-68
2023/03/19 03:06:16;;;;;;;7.27;3.63;;;11.50;99.90;;;;;;10316899;28;20222;-68
2023/03/19 03:11:17;;;;;;;5.63;3.70;;;11.40;99.90;;;;;;10314616;28;20252;-66
2023/03/19 03:16:17;;;;;;;5.20;3.33;;;11.40;99.90;;;;;;10317727;28;20297;-66
2023/03/19 03:21:20;;;;;;;5.43;3.57;;;11.40;99.90;;;;;;10322586;28;20225;-67
2023/03/19 03:26:21;;;;;;;4.97;3.07;;;11.40;99.90;;;;;;10321103;28;20234;-68
2023/03/19 03:31:22;;;;;;;7.67;3.73;;;11.50;99.90;;;;;;10313194;28;20210;-68
2023/03/19 03:36:23;;;;;;;5.70;3.37;;;11.40;99.90;;;;;;10329748;28;20214;-67
2023/03/19 03:41:23;;;;;;;7.07;3.07;;;11.40;99.90;;;;;;10315752;28;20245;-67
2023/03/19 03:46:24;;;;;;;4.77;3.00;;;11.40;99.90;;;;;;10320328;28;20290;-66
2023/03/19 03:51:24;;;;;;;6.53;3.53;;;11.50;99.90;;;;;;10315446;28;20221;-67
2023/03/19 03:56:25;;;;;;;6.83;3.43;;;11.50;99.90;;;;;;10316972;28;20222;-67
2023/03/19 04:01:26;;;;;;;4.33;2.90;;;11.60;99.90;;;;;;10315245;28;20247;-67
2023/03/19 04:06:27;;;;;;;5.33;3.30;;;11.70;99.90;;;;;;10319049;28;20248;-67
2023/03/19 04:11:28;;;;;;;4.97;3.30;;;11.80;99.90;;;;;;10322003;28;20218;-67
2023/03/19 04:16:29;;;;;;;6.13;3.30;;;11.90;99.90;;;;;;10313437;28;20219;-67
2023/03/19 04:21:29;;;;;;;4.83;3.20;;;12.00;99.90;;;;;;10320986;28;20693;-67
2023/03/19 04:26:30;;;;;;;4.97;2.93;;;12.00;99.90;;;;;;10306217;28;20216;-67
2023/03/19 04:31:31;;;;;;;8.63;3.00;;;12.10;99.90;;;;;;10314521;28;20231;-67
2023/03/19 04:36:32;;;;;;;5.17;2.97;;;12.00;99.90;;;;;;10314886;28;20221;-66
2023/03/19 04:41:32;;;;;;;4.70;2.93;;;12.10;99.90;;;;;;10318720;28;20210;-68
2023/03/19 04:46:36;;;;;;;7.33;3.00;;;12.00;99.90;;;;;;10324174;28;20232;-68
2023/03/19 04:51:37;;;;;;;3.90;2.60;;;11.90;99.90;;;;;;10313606;28;20230;-67
2023/03/19 04:56:37;;;;;;;8.03;3.37;;;11.90;99.90;;;;;;10304788;28;20225;-68
2023/03/19 05:01:38;;;;;;;6.87;3.10;;;11.90;99.90;;;;;;10319698;28;20327;-68
2023/03/19 05:06:38;;;;;;;5.57;3.43;;;11.90;99.90;;;;;;10312258;28;20233;-71
2023/03/19 05:11:42;;;;;;;5.07;3.07;;;11.80;99.90;;;;;;10320807;28;20225;-67
2023/03/19 05:16:42;;;;;;;5.60;3.00;;;11.80;99.90;;;;;;10310629;28;20317;-68
2023/03/19 05:21:43;;;;;;;7.40;3.40;;;11.70;99.90;;;;;;10312938;28;20305;-67
2023/03/19 05:26:45;;;;;;;7.60;3.60;;;11.70;99.90;;;;;;10318529;28;20776;-66
2023/03/19 05:31:46;;;;;;;6.60;4.00;;;11.70;99.90;;;;;;10319431;28;20267;-67
2023/03/19 05:36:47;;;;;;;6.30;3.53;;;11.70;99.90;;;;;;10311149;28;20218;-66
2023/03/19 05:41:48;;;;;;;5.83;3.67;;;11.60;99.90;;;;;;10319776;28;20388;-67
2023/03/19 05:46:52;;;;;;;7.00;3.73;;;11.60;99.90;;;;;;10314640;28;20246;-67
2023/03/19 05:51:52;;;;;;;6.00;3.80;;;11.60;99.90;;;;;;10315063;28;20240;-66
2023/03/19 05:56:53;;;;;;;6.70;3.93;;;11.60;99.90;;;;;;10316731;28;20220;-67
2023/03/19 06:01:53;;;;;;;7.60;4.07;;;11.60;99.90;;;;;;10319113;28;20221;-67
2023/03/19 06:06:54;;;;;;;5.63;3.50;;;11.60;99.90;;;;;;10325644;28;20225;-66
2023/03/19 06:11:55;;;;;;;6.37;4.03;;;11.70;99.90;;;;;;10317661;28;20303;-68
2023/03/19 06:16:56;;;;;;;5.90;3.67;;;11.70;99.90;;;;;;10322549;28;20541;-67
2023/03/19 06:21:57;;;;;;;6.97;3.60;;;11.80;99.90;;;;;;10310122;28;20717;-68
2023/03/19 06:26:57;;;;;;;7.40;3.90;;;11.90;99.90;;;;;;10315780;28;20214;-67
2023/03/19 06:31:58;;;;;;;6.80;4.07;;;12.00;99.90;;;;;;10314663;28;20230;-67
2023/03/19 06:36:58;;;;;;;7.40;3.90;;;12.20;99.90;;;;;;10309973;28;20626;-67
2023/03/19 06:41:59;;;;;;;5.83;4.10;;;12.40;99.90;;;;;;10312683;28;20339;-67
2023/03/19 06:46:59;;;;;;;7.70;4.13;;;12.50;99.90;;;;;;10306025;28;20305;-70
2023/03/19 06:52:00;;;;;;;5.77;4.00;;;12.60;99.90;;;;;;10316062;28;20245;-68
2023/03/19 06:57:01;;;;;;;6.40;4.07;;;12.70;99.90;;;;;;10316232;28;20210;-66
2023/03/19 07:02:02;;;;;;;6.70;3.90;;;12.90;99.90;;;;;;10309409;28;20226;-68
2023/03/19 07:07:04;;;;;;;7.40;3.97;;;13.00;99.90;;;;;;10315458;28;20309;-67
2023/03/19 07:12:05;;;;;;;5.30;3.70;;;13.10;99.90;;;;;;10322988;28;20241;-67
2023/03/19 07:17:06;;;;;;;6.13;3.77;;;13.30;99.90;;;;;;10318439;28;20272;-68
2023/03/19 07:22:06;;;;;;;5.60;4.00;;;13.80;99.90;;;;;;10323771;28;20228;-67
2023/03/19 07:27:07;;;;;;;5.80;3.43;;;14.40;99.90;;;;;;10332601;28;20275;-67
2023/03/19 07:32:09;;;;;;;5.77;3.47;;;15.00;99.90;;;;;;10328910;28;20225;-68
2023/03/19 07:37:10;;;;;;;8.00;3.90;;;15.80;99.90;;;;;;10307942;28;20218;-66
2023/03/19 07:42:11;;;;;;;5.47;3.30;;;16.10;99.70;;;;;;10320948;28;20223;-67
2023/03/19 07:47:11;;;;;;;6.60;3.60;;;16.30;98.60;;;;;;10316658;28;20218;-68
2023/03/19 07:52:13;;;;;;;7.27;3.60;;;16.60;97.80;;;;;;10324330;28;20403;-66
2023/03/19 07:57:15;;;;;;;7.87;3.53;;;17.00;96.90;;;;;;10321435;28;20229;-71
2023/03/19 08:02:16;;;;;;;8.70;3.50;;;17.40;95.70;;;;;;10323686;28;20256;-70
2023/03/19 08:07:17;;;;;;;5.03;3.70;;;18.10;93.80;;;;;;10327318;28;20226;-67
2023/03/19 08:12:17;;;;;;;6.57;3.97;;;18.10;92.40;;;;;;10322938;28;20233;-65
2023/03/19 08:17:18;;;;;;;7.33;3.67;;;17.90;92.50;;;;;;10313778;28;20214;-66
2023/03/19 08:22:19;;;;;;;4.50;3.57;;;18.10;92.30;;;;;;10327814;28;20218;-66
2023/03/19 08:27:20;;;;;;;5.63;3.30;;;18.60;91.10;;;;;;10327868;28;20685;-67
2023/03/19 08:32:20;;;;;;;6.53;3.70;;;19.40;89.60;;;;;;10328331;28;20226;-67
2023/03/19 08:37:21;;;;;;;8.63;3.67;;;20.10;84.40;;;;;;10328297;28;20225;-69
2023/03/19 08:42:25;;;;;;;4.47;3.60;;;20.50;80.40;;;;;;10330869;28;20292;-67
2023/03/19 08:47:26;;;;;;;6.27;4.17;;;20.50;80.30;;;;;;10328443;28;20298;-68
2023/03/19 08:52:26;;;;;;;7.30;3.43;;;20.70;79.50;;;;;;10327371;28;20226;-66
2023/03/19 08:57:28;;;;;;;5.87;3.43;;;21.80;77.00;;;;;;10328952;28;20713;-68
2023/03/19 09:02:29;;;;;;;4.80;3.10;;;23.00;69.00;;;;;;10321313;28;20871;-70
2023/03/19 09:07:30;;;;;;;5.10;3.00;;;23.40;65.90;;;;;;10319363;28;20221;-69
2023/03/19 09:12:30;;;;;;;5.57;3.20;;;26.50;57.50;;;;;;10306077;28;20234;-68
2023/03/19 09:17:31;;;;;;;4.90;2.70;;;29.70;48.30;;;;;;10311400;28;20210;-67
2023/03/19 09:22:31;;;;;;;5.43;3.07;;;32.30;42.00;;;;;;10313836;28;20694;-68
2023/03/19 09:27:32;;;;;;;3.93;2.87;;;33.80;36.30;;;;;;10310703;28;20324;-66
2023/03/19 09:32:32;;;;;;;4.10;2.50;;;32.20;36.20;;;;;;10311250;28;20918;-66
2023/03/19 09:37:33;;;;;;;5.47;2.50;;;29.10;40.00;;;;;;10310521;28;20326;-67
2023/03/19 09:42:48;;;;;;;5.23;2.80;;;29.20;40.60;;;;;;10304056;28;20227;-68
2023/03/19 09:47:55;;;;;;;5.47;3.23;;;30.00;39.50;;;;;;10331183;28;20734;-70
2023/03/19 09:53:16;;;;;;;3.40;2.77;;;28.80;41.10;;;;;;10327038;28;20218;-71
2023/03/19 09:58:25;;;;;;;5.20;3.50;;;26.90;43.00;;;;;;10329837;28;20230;-68
2023/03/19 10:03:31;;;;;;;6.00;3.50;;;25.60;46.70;;;;;;10325530;28;20270;-68
2023/03/19 10:08:50;;;;;;;7.10;4.13;;;24.30;49.80;;;;;;10327029;28;20346;-68
2023/03/19 10:14:02;;;;;;;6.07;3.20;;;22.60;53.50;;;;;;10327038;28;20226;-69
2023/03/19 10:19:11;;;;;;;4.47;3.00;;;21.70;55.10;;;;;;10316231;28;20217;-70
2023/03/19 10:24:18;;;;;;;5.67;3.10;;;21.10;56.70;;;;;;10307332;28;20237;-69
2023/03/19 10:29:27;;;;;;;5.40;3.33;;;21.10;57.10;;;;;;10308320;28;20278;-69
2023/03/19 10:34:34;;;;;;;4.87;3.23;;;21.10;57.30;;;;;;10301468;28;20717;-71
2023/03/19 10:39:39;;;;;;;5.00;3.90;;;21.40;57.50;;;;;;10317530;28;20235;-72
2023/03/19 10:44:55;;;;;;;6.07;3.00;;;22.80;55.30;;;;;;10302742;28;20228;-70
2023/03/19 10:49:56;;;;;;;5.73;3.50;;;27.40;47.70;;;;;;10303826;28;20217;-72
2023/03/19 10:55:25;;;;;;;4.37;3.40;;;29.80;42.50;;;;;;10332572;28;20611;-71
2023/03/19 11:00:31;;;;;;;4.17;3.30;;;29.60;41.20;;;;;;10327259;28;20222;-72
2023/03/19 11:05:33;;;;;;;5.63;3.30;;;30.80;38.50;;;;;;10335268;28;20217;-72
2023/03/19 11:10:35;;;;;;;5.57;3.53;;;28.90;40.40;;;;;;10333894;28;20260;-69
2023/03/19 11:15:37;;;;;;;4.23;2.93;;;27.30;43.50;;;;;;10332541;28;20275;-70
2023/03/19 11:20:38;;;;;;;6.67;3.23;;;26.60;43.90;;;;;;10329703;28;20276;-70
2023/03/19 11:25:45;;;;;;;6.13;3.17;;;25.60;45.80;;;;;;10322804;28;20299;-70
2023/03/19 11:31:14;;;;;;;4.83;3.20;;;25.00;47.30;;;;;;10309609;28;20250;-69
2023/03/19 11:36:17;;;;;;;4.90;3.10;;;25.00;46.50;;;;;;10314202;28;20669;-73
2023/03/19 11:42:00;;;;;;;4.67;2.90;;;24.60;47.00;;;;;;10328153;28;20237;-71
2023/03/19 11:47:14;;;;;;;4.57;2.73;;;23.80;48.90;;;;;;10320901;28;20229;-68
2023/03/19 11:52:47;;;;;;;4.70;2.97;;;23.10;49.00;;;;;;10320449;28;20237;-70
2023/03/19 11:58:10;;;;;;;3.43;2.80;;;22.20;51.00;;;;;;10302930;28;20231;-67
2023/03/19 12:03:20;;;;;;;4.03;2.60;;;21.60;52.40;;;;;;10309630;28;20265;-71
2023/03/19 12:08:40;;;;;;;8.37;2.70;;;21.70;52.20;;;;;;10323047;28;20909;-68
2023/03/19 12:13:47;;;;;;;5.97;2.97;;;21.50;52.00;;;;;;10331490;28;20230;-73
2023/03/19 12:19:00;;;;;;;5.77;2.73;;;21.40;53.10;;;;;;10316828;28;20222;-75
2023/03/19 12:24:04;;;;;;;4.03;2.90;;;21.20;54.30;;;;;;10332826;28;20218;-75
2023/03/19 12:29:26;;;;;;;4.37;3.00;;;21.00;54.30;;;;;;10330530;28;20283;-76
2023/03/19 12:34:38;;;;;;;5.07;2.80;;;20.80;55.20;;;;;;10328441;28;20312;-74
2023/03/19 12:39:49;;;;;;;4.90;2.73;;;20.70;56.70;;;;;;10327750;28;20602;-72
2023/03/19 12:44:53;;;;;;;4.87;2.33;;;20.50;57.00;;;;;;10340531;28;20245;-71
2023/03/19 12:50:08;;;;;;;4.73;2.83;;;20.40;57.70;;;;;;10319181;28;20705;-72
2023/03/19 12:55:14;;;;;;;4.57;2.93;;;20.50;57.70;;;;;;10320125;28;20229;-71
2023/03/19 13:00:27;;;;;;;4.90;3.03;;;20.50;57.60;;;;;;10325236;28;20196;-74
2023/03/19 13:05:35;;;;;;;4.33;3.27;;;20.50;60.00;;;;;;10330001;28;20245;-73
2023/03/19 13:10:36;;;;;;;9.93;3.20;;;20.50;64.60;;;;;;10324651;28;20284;-70
2023/03/19 13:15:44;;;;;;;4.53;2.77;;;20.20;66.20;;;;;;10320319;28;20438;-70
2023/03/19 13:20:55;;;;;;;5.20;2.50;;;19.60;66.70;;;;;;10316967;28;20702;-67
2023/03/19 13:25:57;;;;;;;4.27;2.60;;;19.20;68.10;;;;;;10312394;28;20231;-70
2023/03/19 13:31:01;;;;;;;3.60;2.17;;;19.10;69.60;;;;;;10325792;28;20225;-69
2023/03/19 13:36:04;;;;;;;2.50;1.70;;;18.90;71.40;;;;;;10326059;28;20267;-69
2023/03/19 13:41:05;;;;;;;3.63;1.83;;;18.90;71.80;;;;;;10327841;28;20245;-69
2023/03/19 13:46:11;;;;;;;2.43;1.90;;;18.90;72.20;;;;;;10321384;28;20218;-72
2023/03/19 13:51:15;;;;;;;3.60;2.60;;;18.80;71.80;;;;;;10324956;28;20677;-69
2023/03/19 13:56:16;;;;;;;4.70;2.40;;;18.30;74.80;;;;;;10326326;28;20304;-71
2023/03/19 14:01:25;;;;;;;4.43;2.40;;;18.00;77.90;;;;;;10317018;28;20320;-70
2023/03/19 14:06:54;;;;;;;6.33;2.53;;;17.80;80.40;;;;;;10323211;28;20217;-71
2023/03/19 14:11:55;;;;;;;4.97;2.20;;;17.60;81.30;;;;;;10312264;28;20337;-70
2023/03/19 14:16:55;;;;;;;3.70;2.27;;;17.30;82.60;;;;;;10328047;28;20339;-71
2023/03/19 14:22:00;;;;;;;2.77;2.10;;;17.00;84.70;;;;;;10314129;28;20658;-68
2023/03/19 14:27:14;;;;;;;2.33;1.73;;;16.80;90.20;;;;;;10327073;28;20252;-70
2023/03/19 14:32:23;;;;;;;4.50;1.70;;;16.60;90.80;;;;;;10329464;28;20601;-69
2023/03/19 14:37:28;;;;;;;2.87;1.70;;;16.40;91.40;;;;;;10322238;28;20231;-69
2023/03/19 14:42:47;;;;;;;2.97;1.50;;;16.50;92.10;;;;;;10323105;28;20243;-68
2023/03/19 14:48:05;;;;;;;2.23;1.70;;;16.60;93.60;;;;;;10320201;28;20229;-68
2023/03/19 14:53:40;;;;;;;1.60;1.30;;;16.80;95.20;;;;;;10331288;28;20328;-70
2023/03/19 14:58:48;;;;;;;2.53;1.20;;;17.00;94.50;;;;;;10327157;28;20708;-69
2023/03/19 15:04:03;;;;;;;1.70;1.40;;;17.10;93.50;;;;;;10326761;28;20225;-67
2023/03/19 15:09:28;;;;;;;1.37;1.17;;;17.20;93.20;;;;;;10323386;28;20578;-67
2023/03/19 15:14:56;;;;;;;4.63;1.20;;;17.50;92.90;;;;;;10329827;28;20743;-68
2023/03/19 15:20:00;;;;;;;0.87;0.80;;;17.50;92.50;;;;;;10341044;28;20282;-69
2023/03/19 15:25:13;;;;;;;2.37;0.80;;;17.40;91.40;;;;;;10329122;28;20221;-67
2023/03/19 15:30:26;;;;;;;1.60;0.97;;;17.50;90.90;;;;;;10330390;28;20227;-68
2023/03/19 15:35:35;;;;;;;0.80;0.33;;;17.50;91.40;;;;;;10323794;28;20723;-68
2023/03/19 15:40:36;;;;;;;2.77;1.03;;;17.70;88.40;;;;;;10321485;28;20240;-68
2023/03/19 15:45:40;;;;;;;0.20;0.20;;;17.50;86.60;;;;;;10324446;28;20773;-66
2023/03/19 15:50:45;;;;;;;0.97;0.50;;;17.30;88.60;;;;;;10320858;28;20252;-68
2023/03/19 15:55:48;;;;;;;1.83;0.53;;;17.30;89.50;;;;;;10326153;28;20236;-68
2023/03/19 16:00:52;;;;;;;0.57;0.33;;;17.10;90.40;;;;;;10318297;28;20335;-66
2023/03/19 16:06:12;;;;;;;1.63;0.90;;;17.10;90.50;;;;;;10313945;28;20229;-66
2023/03/19 16:11:14;;;;;;;1.73;0.63;;;17.10;91.20;;;;;;10319692;28;20573;-66
2023/03/19 16:16:22;;;;;;;1.57;0.60;;;17.00;90.80;;;;;;10335854;28;20216;-68
2023/03/19 16:21:27;;;;;;;1.00;0.90;;;16.90;91.50;;;;;;10314650;28;20228;-65
2023/03/19 16:26:36;;;;;;;1.23;0.93;;;16.70;92.30;;;;;;10323345;28;20279;-67
2023/03/19 16:31:50;;;;;;;2.23;1.20;;;16.60;93.10;;;;;;10322400;28;20253;-66
2023/03/19 16:36:51;;;;;;;2.50;1.60;;;16.50;94.00;;;;;;10318145;28;20240;-66
2023/03/19 16:42:15;;;;;;;1.17;1.07;;;16.30;95.00;;;;;;10322588;28;20224;-67
2023/03/19 16:47:15;;;;;;;2.20;1.10;;;16.10;95.70;;;;;;10316498;28;20217;-66
2023/03/19 16:52:21;;;;;;;1.67;1.40;;;15.90;96.70;;;;;;10311531;28;20218;-65
2023/03/19 16:57:22;;;;;;;4.43;1.40;;;15.60;97.90;;;;;;10318666;28;20284;-68
2023/03/19 17:02:22;;;;;;;1.47;1.13;;;15.50;99.10;;;;;;10329090;28;20562;-68
2023/03/19 17:07:23;;;;;;;1.90;1.17;;;15.30;99.90;;;;;;10326608;28;20228;-65
2023/03/19 17:12:24;;;;;;;1.60;1.50;;;15.00;99.90;;;;;;10326248;28;20243;-68
2023/03/19 17:17:25;;;;;;;2.60;1.50;;;14.80;99.90;;;;;;10325527;28;20592;-67
2023/03/19 17:22:29;;;;;;;2.40;1.87;;;14.60;99.90;;;;;;10324509;28;20216;-69
2023/03/19 17:27:30;;;;;;;4.50;3.37;;;14.30;99.90;;;;;;10319242;28;20224;-68
2023/03/19 17:32:31;;;;;;;3.37;2.27;;;14.20;99.90;;;;;;10324948;28;20218;-67
2023/03/19 17:37:32;;;;;;;2.73;1.70;;;14.10;99.90;;;;;;10321969;28;20214;-68
2023/03/19 17:42:34;;;;;;;3.03;1.70;;;13.90;99.90;;;;;;10325965;28;20341;-71
2023/03/19 17:47:35;;;;;;;3.23;1.90;;;13.90;99.90;;;;;;10323808;28;20320;-65
2023/03/19 17:52:36;;;;;;;2.17;1.60;;;13.70;99.90;;;;;;10322844;28;20317;-68
2023/03/19 17:57:36;;;;;;;2.90;1.90;;;13.60;99.90;;;;;;10322121;28;20229;-68
2023/03/19 18:02:39;;;;;;;2.13;1.93;;;13.40;99.90;;;;;;10321522;28;20226;-67
2023/03/19 18:07:40;;;;;;;4.90;2.30;;;13.20;99.90;;;;;;10324715;28;20228;-65
2023/03/19 18:12:41;;;;;;;2.90;2.20;;;13.10;99.90;;;;;;10322031;28;20233;-66
2023/03/19 18:17:47;;;;;;;3.80;2.07;;;13.00;99.90;;;;;;10316962;28;20230;-67
2023/03/19 18:22:48;;;;;;;2.97;2.03;;;13.00;99.90;;;;;;10303009;28;20700;-67
2023/03/19 18:27:49;;;;;;;4.07;2.87;;;13.10;99.90;;;;;;10312896;28;20226;-67
2023/03/19 18:32:56;;;;;;;4.60;2.70;;;13.30;99.90;;;;;;10315481;28;20218;-67
2023/03/19 18:37:57;;;;;;;6.43;4.63;;;13.40;99.90;;;;;;10313971;28;20273;-67
2023/03/19 18:42:58;;;;;;;3.97;3.57;;;13.40;99.90;;;;;;10317611;28;20214;-68
2023/03/19 18:47:59;;;;;;;4.50;3.30;;;13.50;99.90;;;;;;10307596;28;20227;-66
2023/03/19 18:53:00;;;;;;;3.10;2.43;;;13.40;99.90;;;;;;10318873;28;20336;-66
2023/03/19 18:58:01;;;;;;;4.40;2.17;;;13.50;99.90;;;;;;10312748;28;20221;-67
2023/03/19 19:03:03;;;;;;;3.77;2.03;;;13.60;99.90;;;;;;10318037;28;20225;-65
2023/03/19 19:08:11;;;;;;;6.37;2.80;;;13.60;99.90;;;;;;10313773;28;20221;-65
2023/03/19 19:13:19;;;;;;;2.83;2.27;;;13.60;99.90;;;;;;10306611;28;20661;-68
2023/03/19 19:18:25;;;;;;;4.37;2.57;;;13.50;99.90;;;;;;10324661;28;20702;-68
2023/03/19 19:23:29;;;;;;;3.13;2.50;;;13.30;99.90;;;;;;10315512;28;20231;-67
2023/03/19 19:28:34;;;;;;;5.13;3.13;;;13.10;99.90;;;;;;10316766;28;20292;-66
2023/03/19 19:33:36;;;;;;;6.13;2.93;;;12.90;99.90;;;;;;10329534;28;20592;-68
2023/03/19 19:38:36;;;;;;;4.93;3.00;;;12.70;99.90;;;;;;10307473;28;20237;-68
2023/03/19 19:43:38;;;;;;;3.53;2.90;;;12.50;99.90;;;;;;10316158;28;20218;-67
2023/03/19 19:48:39;;;;;;;4.37;2.77;;;12.40;99.90;;;;;;10331747;28;20225;-69
2023/03/19 19:53:40;;;;;;;4.60;3.17;;;12.20;99.90;;;;;;10322112;28;20733;-67
2023/03/19 19:58:42;;;;;;;6.07;3.33;;;12.10;99.90;;;;;;10313873;28;20223;-67
2023/03/19 20:03:43;;;;;;;4.90;4.03;;;12.00;99.90;;;;;;10322245;28;20230;-67
2023/03/19 20:08:47;;;;;;;3.77;3.40;;;11.90;99.90;;;;;;10307316;28;20238;-67
2023/03/19 20:13:52;;;;;;;6.07;3.17;;;11.80;99.90;;;;;;10313960;28;20235;-68
2023/03/19 20:18:53;;;;;;;5.07;3.30;;;11.70;99.90;;;;;;10321244;28;20272;-68
2023/03/19 20:23:55;;;;;;;3.77;3.17;;;11.60;99.90;;;;;;10322003;28;20230;-66
2023/03/19 20:28:56;;;;;;;4.80;3.80;;;11.50;99.90;;;;;;10329524;28;20234;-67
2023/03/19 20:33:57;;;;;;;5.00;3.60;;;11.40;99.90;;;;;;10325950;28;20238;-68
2023/03/19 20:38:58;;;;;;;3.87;3.20;;;11.30;99.90;;;;;;10315132;28;20608;-68
2023/03/19 20:44:01;;;;;;;4.50;4.10;;;11.30;99.90;;;;;;10312757;28;20236;-67
2023/03/19 20:49:02;;;;;;;4.73;3.90;;;11.20;99.90;;;;;;10310478;28;20230;-68
2023/03/19 20:54:04;;;;;;;5.37;3.87;;;11.30;99.90;;;;;;10318736;28;20225;-67
2023/03/19 20:59:04;;;;;;;5.10;3.87;;;11.20;99.90;;;;;;10324111;28;20313;-67
2023/03/19 21:04:08;;;;;;;6.03;3.87;;;11.10;99.90;;;;;;10325358;28;20225;-66
2023/03/19 21:09:12;;;;;;;3.57;3.20;;;11.00;99.90;;;;;;10304455;28;20313;-67
2023/03/19 21:14:15;;;;;;;4.33;3.13;;;10.90;99.90;;;;;;10318903;28;20222;-67
2023/03/19 21:19:16;;;;;;;3.83;3.10;;;10.90;99.90;;;;;;10313898;28;20268;-65
2023/03/19 21:24:18;;;;;;;5.43;2.90;;;10.80;99.90;;;;;;10315215;28;20226;-65
2023/03/19 21:29:27;;;;;;;2.90;2.50;;;10.80;99.90;;;;;;10305946;28;20257;-64
2023/03/19 21:34:28;;;;;;;3.67;2.57;;;10.80;99.90;;;;;;10312863;28;20226;-65
2023/03/19 21:39:28;;;;;;;2.97;1.80;;;10.90;99.90;;;;;;10310783;28;20233;-66
2023/03/19 21:44:30;;;;;;;2.80;2.50;;;11.10;99.90;;;;;;10312566;28;20896;-66
2023/03/19 21:49:30;;;;;;;4.17;2.50;;;11.20;99.90;;;;;;10311730;28;20225;-67
2023/03/19 21:54:31;;;;;;;3.00;2.70;;;11.20;99.90;;;;;;10312276;28;20234;-65
2023/03/19 21:59:32;;;;;;;4.37;2.77;;;11.20;99.90;;;;;;10311676;28;20287;-65
2023/03/19 22:04:33;;;;;;;2.90;2.33;;;11.30;99.90;;;;;;10310798;28;20221;-68
2023/03/19 22:09:33;;;;;;;2.47;2.27;;;11.40;99.90;;;;;;10302711;28;20594;-67
2023/03/19 22:14:34;;;;;;;3.80;2.30;;;11.40;99.90;;;;;;10316893;28;20234;-65
2023/03/19 22:19:35;;;;;;;2.30;2.10;;;11.30;99.90;;;;;;10317542;28;20226;-65
2023/03/19 22:24:35;;;;;;;4.20;2.37;;;11.30;99.90;;;;;;10310270;28;20224;-65
2023/03/19 22:29:36;;;;;;;3.33;3.00;;;11.20;99.90;;;;;;10310185;28;20344;-66
2023/03/19 22:34:36;;;;;;;5.57;3.23;;;11.10;99.90;;;;;;10312512;28;20721;-66
2023/03/19 22:39:37;;;;;;;4.07;2.60;;;11.10;99.90;;;;;;10307448;28;20720;-67
2023/03/19 22:44:37;;;;;;;3.27;2.40;;;11.10;99.90;;;;;;10315649;28;20325;-68
2023/03/19 22:49:38;;;;;;;3.70;2.40;;;11.10;99.90;;;;;;10315089;28;20232;-67
2023/03/19 22:54:40;;;;;;;4.33;3.17;;;11.10;99.90;;;;;;10321779;28;20230;-67
2023/03/19 22:59:42;;;;;;;4.20;3.07;;;11.00;99.90;;;;;;10309810;28;20269;-67
2023/03/19 23:04:42;;;;;;;3.13;2.83;;;11.00;99.90;;;;;;10332760;28;20218;-66
2023/03/19 23:09:44;;;;;;;3.80;2.77;;;11.00;99.90;;;;;;10323527;28;20697;-67
2023/03/19 23:14:45;;;;;;;4.17;3.03;;;11.00;99.90;;;;;;10316075;28;20222;-68
2023/03/19 23:19:46;;;;;;;4.90;2.67;;;11.00;99.90;;;;;;10313592;28;20226;-67
2023/03/19 23:24:46;;;;;;;4.03;2.53;;;11.00;99.90;;;;;;10315064;28;20222;-68
2023/03/19 23:29:47;;;;;;;4.77;2.30;;;11.10;99.90;;;;;;10321368;28;20222;-65
2023/03/19 23:34:47;;;;;;;3.00;2.30;;;11.00;99.90;;;;;;10314575;28;20265;-67
2023/03/19 23:39:48;;;;;;;4.00;2.50;;;11.00;99.90;;;;;;10315909;28;20227;-67
2023/03/19 23:44:49;;;;;;;2.80;2.40;;;10.90;99.90;;;;;;10313928;28;20313;-68
2023/03/19 23:49:50;;;;;;;2.43;2.23;;;10.90;99.90;;;;;;10307771;28;20229;-65
2023/03/19 23:54:51;;;;;;;3.10;2.37;;;11.00;99.90;;;;;;10329378;28;20230;-65
2023/03/19 23:59:52;;;;;;;3.00;2.23;;;11.00;99.90;;;;;;10322228;28;20337;-66
